Time;durP1;ratioP1;P1;durP2;ratioP2;P2;SDS_P1;SDS_P2;PMS_P1;PMS_P2;Temp;Humidity;BMP_temperature;BMP_pressure;BME280_temperature;BME280_humidity;BME280_pressure;Samples;Min_cycle;Max_cycle;Signal;HPM_P1;HPM_P2
2023/10/13 04:30:38;;;;;;;;;10.25;10.00;;;;;29.30;43.88;100657.06;5998150;22;46939;-62
2023/10/13 04:33:35;;;;;;;;;9.50;9.00;;;;;29.09;44.28;100645.13;4998794;28;45384;-61
2023/10/13 04:36:13;;;;;;;;;11.50;9.75;;;;;29.23;43.17;100641.47;5000088;28;45417;-61
2023/10/13 04:41:37;;;;;;;;;9.25;9.00;;;;;29.11;43.19;100627.28;4991583;28;45357;-61
2023/10/13 04:54:59;;;;;;;;;11.75;11.00;;;;;29.09;41.98;100612.00;4998181;28;45362;-62
2023/10/13 05:05:21;;;;;;;;;10.50;9.50;;;;;28.94;41.52;100587.16;4999640;28;45435;-62
2023/10/13 05:49:20;;;;;;;;;12.75;11.50;;;;;29.08;41.39;100555.91;4998991;28;45272;-61
2023/10/13 05:52:06;;;;;;;;;16.75;14.00;;;;;28.73;41.31;100520.84;4998912;28;45191;-61
2023/10/13 06:30:12;;;;;;;;;14.25;13.50;;;;;28.48;42.12;100556.19;5000868;28;46158;-59
2023/10/13 06:32:39;;;;;;;;;14.00;12.00;;;;;28.39;41.66;100560.06;4996613;28;45405;-59
2023/10/13 06:35:18;;;;;;;;;15.75;14.25;;;;;28.51;41.64;100564.03;5001504;28;45302;-60
2023/10/13 06:37:43;;;;;;;;;14.50;13.00;;;;;28.49;42.25;100568.91;5000178;28;45432;-60
2023/10/13 06:40:32;;;;;;;;;14.00;14.00;;;;;28.42;41.97;100562.44;4982328;28;46906;-60
2023/10/13 06:43:21;;;;;;;;;18.75;18.25;;;;;28.40;41.57;100559.03;5001733;28;45314;-59
2023/10/13 06:45:56;;;;;;;;;12.50;10.75;;;;;28.38;41.75;100559.22;4983896;28;45486;-59
2023/10/13 06:48:24;;;;;;;;;13.00;12.75;;;;;28.46;41.56;100556.34;4991274;28;46291;-59
2023/10/13 06:50:51;;;;;;;;;16.25;14.50;;;;;28.56;41.29;100551.41;4999909;28;45362;-59
2023/10/13 06:53:16;;;;;;;;;14.25;13.00;;;;;28.55;40.93;100557.13;5000397;28;45429;-59
2023/10/13 06:55:46;;;;;;;;;13.75;11.50;;;;;28.50;40.46;100559.56;4999433;28;45472;-59
2023/10/13 06:58:13;;;;;;;;;15.25;15.25;;;;;28.50;40.85;100560.44;4998858;28;46267;-59
2023/10/13 07:00:41;;;;;;;;;12.75;11.00;;;;;28.28;40.61;100563.28;5000611;28;45469;-59
2023/10/13 07:03:08;;;;;;;;;19.50;14.00;;;;;28.45;40.44;100556.53;5000732;28;45382;-60
2023/10/13 07:05:41;;;;;;;;;14.50;13.75;;;;;28.45;40.86;100562.91;5000528;28;45386;-59
2023/10/13 07:08:07;;;;;;;;;12.75;12.75;;;;;28.57;40.21;100566.91;5000604;28;46122;-59
2023/10/13 07:10:44;;;;;;;;;15.25;14.25;;;;;28.66;40.23;100558.53;5000318;28;46028;-59
2023/10/13 07:13:11;;;;;;;;;12.75;12.75;;;;;28.62;39.85;100566.34;5000519;28;45433;-59
2023/10/13 07:15:44;;;;;;;;;13.50;13.50;;;;;28.60;39.96;100554.63;5000199;28;45298;-59
2023/10/13 07:18:13;;;;;;;;;18.00;15.00;;;;;28.54;39.83;100559.00;5000471;28;45980;-59
2023/10/13 07:20:43;;;;;;;;;13.00;12.75;;;;;28.69;39.58;100564.50;5000258;28;45639;-59
2023/10/13 07:23:17;;;;;;;;;16.50;14.75;;;;;28.76;39.20;100559.97;5000824;28;45381;-59
2023/10/13 07:25:51;;;;;;;;;14.50;14.50;;;;;28.57;39.15;100558.66;5000920;28;45443;-59
2023/10/13 07:28:17;;;;;;;;;9.75;9.75;;;;;28.47;39.25;100546.19;4999916;28;45441;-58
2023/10/13 07:30:49;;;;;;;;;13.50;13.50;;;;;28.54;39.83;100553.50;5000060;28;46217;-59
2023/10/13 07:33:19;;;;;;;;;15.75;14.25;;;;;28.74;38.84;100556.53;5000479;28;45447;-58
2023/10/13 07:35:50;;;;;;;;;15.00;13.75;;;;;28.40;39.20;100546.09;5000402;28;45326;-60
2023/10/13 07:38:16;;;;;;;;;15.50;13.75;;;;;28.63;38.94;100545.13;4999995;28;45449;-59
2023/10/13 07:40:41;;;;;;;;;12.25;12.00;;;;;28.82;38.64;100558.34;5000234;28;45340;-59
2023/10/13 07:43:10;;;;;;;;;14.00;13.50;;;;;28.81;38.12;100557.50;4999795;28;45523;-58
2023/10/13 07:45:40;;;;;;;;;14.50;14.50;;;;;28.95;38.23;100556.59;4998725;28;45295;-58
2023/10/13 07:48:18;;;;;;;;;11.25;11.25;;;;;28.73;38.48;100565.84;4999360;28;45496;-58
2023/10/13 07:50:45;;;;;;;;;13.50;12.75;;;;;28.85;37.98;100563.47;4999294;28;46250;-58
2023/10/13 07:53:22;;;;;;;;;13.50;13.50;;;;;29.00;38.28;100561.56;4981950;28;45537;-58
2023/10/13 07:55:55;;;;;;;;;13.75;12.75;;;;;29.10;37.55;100566.75;4981804;28;45422;-58
2023/10/13 07:58:24;;;;;;;;;12.50;12.25;;;;;29.18;37.63;100561.09;4999297;28;45353;-59
2023/10/13 08:00:54;;;;;;;;;13.75;13.75;;;;;29.10;36.91;100555.69;5000019;28;46363;-60
2023/10/13 08:03:32;;;;;;;;;15.25;13.75;;;;;28.82;37.64;100564.72;4998388;28;45437;-59
2023/10/13 08:08:25;;;;;;;;;11.00;11.00;;;;;28.92;37.71;100562.50;4999568;28;45286;-59
2023/10/13 08:10:55;;;;;;;;;12.25;10.50;;;;;28.89;37.04;100553.78;4998474;28;45436;-59
2023/10/13 08:13:21;;;;;;;;;16.00;13.00;;;;;29.12;36.80;100551.69;4999354;28;45262;-60
2023/10/13 08:15:47;;;;;;;;;13.75;12.75;;;;;29.06;36.32;100549.72;4999763;28;45478;-59
2023/10/13 08:18:33;;;;;;;;;13.00;13.00;;;;;28.93;36.82;100544.03;4998559;28;45365;-59
2023/10/13 08:21:03;;;;;;;;;16.25;13.00;;;;;29.00;37.12;100549.66;4981207;28;45661;-59
2023/10/13 08:26:29;;;;;;;;;13.50;12.25;;;;;28.87;36.89;100545.69;4986612;28;45481;-59
2023/10/13 08:34:38;;;;;;;;;14.75;13.00;;;;;29.06;36.89;100544.22;4999632;28;45323;-59
2023/10/13 08:37:22;;;;;;;;;10.75;10.75;;;;;29.23;36.35;100539.28;4998800;28;45413;-58
2023/10/13 08:45:20;;;;;;;;;13.00;12.00;;;;;29.46;36.22;100539.13;4999271;28;45333;-58
2023/10/13 08:48:07;;;;;;;;;12.00;10.25;;;;;29.25;35.70;100531.69;4999623;28;45471;-58
2023/10/13 08:50:48;;;;;;;;;14.50;13.25;;;;;29.23;35.65;100531.00;4999070;28;45412;-58
2023/10/13 09:01:34;;;;;;;;;10.00;10.00;;;;;29.75;35.64;100527.94;4999178;28;45669;-58
2023/10/13 09:04:59;;;;;;;;;10.75;10.50;;;;;29.83;34.96;100521.41;4999057;28;46147;-59
2023/10/13 09:09:35;;;;;;;;;11.75;11.75;;;;;29.63;35.81;100513.78;4998512;28;45258;-59
2023/10/13 09:12:08;;;;;;;;;11.25;10.00;;;;;29.58;35.29;100512.69;4999136;28;45489;-59
2023/10/13 09:14:37;;;;;;;;;13.50;12.75;;;;;29.73;34.80;100513.44;4997661;28;45425;-60
2023/10/13 09:17:11;;;;;;;;;11.50;11.50;;;;;29.80;34.99;100506.06;4999030;28;45350;-60
2023/10/13 09:19:55;;;;;;;;;13.00;13.00;;;;;29.72;35.52;100509.81;4998608;28;45325;-59
2023/10/13 09:22:35;;;;;;;;;10.25;7.00;;;;;29.49;35.01;100489.88;4998290;28;45664;-60
2023/10/13 09:25:00;;;;;;;;;12.75;11.25;;;;;29.86;35.48;100501.66;4997981;28;45401;-59
2023/10/13 09:27:32;;;;;;;;;12.25;10.50;;;;;29.82;35.46;100501.19;4998723;28;45594;-58
2023/10/13 09:30:18;;;;;;;;;12.00;11.25;;;;;30.08;35.04;100503.31;4998864;28;45381;-60
2023/10/13 09:32:48;;;;;;;;;12.00;11.00;;;;;30.19;34.62;100497.22;4999026;28;45326;-59
2023/10/13 09:35:23;;;;;;;;;8.00;8.00;;;;;30.15;34.76;100500.59;4998362;28;45262;-59
2023/10/13 09:37:50;;;;;;;;;11.25;10.25;;;;;30.08;35.07;100492.25;4997564;28;45437;-58
2023/10/13 09:40:33;;;;;;;;;14.00;14.00;;;;;30.26;34.84;100486.19;4998305;28;45282;-60
2023/10/13 09:43:05;;;;;;;;;12.00;12.00;;;;;30.35;34.47;100488.59;4998522;28;45340;-59
2023/10/13 09:46:17;;;;;;;;;9.75;9.75;;;;;30.24;34.29;100494.69;4997515;28;45567;-58
2023/10/13 09:48:26;;;;;;;;;11.00;10.00;;;;;30.28;34.37;100490.47;4987949;28;45382;-60
2023/10/13 09:50:59;;;;;;;;;8.00;8.00;;;;;30.41;34.79;100486.91;4998649;28;45361;-59
2023/10/13 09:53:25;;;;;;;;;13.50;10.75;;;;;30.39;33.83;100483.50;4996637;28;46034;-58
2023/10/13 09:56:11;;;;;;;;;10.25;10.25;;;;;30.50;33.90;100488.44;5002102;28;45346;-59
2023/10/13 09:58:47;;;;;;;;;13.00;12.50;;;;;30.38;34.19;100485.41;5001844;28;45330;-59
2023/10/13 10:01:37;;;;;;;;;10.75;10.75;;;;;30.55;33.83;100493.38;5002111;28;45450;-58
2023/10/13 10:04:09;;;;;;;;;11.00;10.75;;;;;30.57;33.44;100477.44;4984456;28;45478;-59
2023/10/13 10:06:47;;;;;;;;;13.25;13.00;;;;;30.54;33.51;100470.38;4984497;28;46366;-58
2023/10/13 10:09:12;;;;;;;;;11.00;11.00;;;;;30.61;33.04;100470.44;5001704;28;45346;-59
2023/10/13 10:12:01;;;;;;;;;11.25;11.25;;;;;30.76;33.43;100465.59;5001582;28;45296;-60
2023/10/13 10:14:48;;;;;;;;;10.00;9.50;;;;;30.65;33.04;100472.56;5001726;28;45501;-58
2023/10/13 10:17:14;;;;;;;;;11.75;10.50;;;;;30.84;32.54;100454.31;4998001;28;46304;-59
2023/10/13 10:19:56;;;;;;;;;13.75;12.25;;;;;31.07;33.22;100449.28;5001489;28;45387;-59
2023/10/13 10:22:47;;;;;;;;;10.00;9.50;;;;;30.99;33.09;100449.44;5001867;28;45487;-60
2023/10/13 10:25:25;;;;;;;;;13.25;11.25;;;;;31.16;32.50;100458.25;5001612;28;45473;-59
2023/10/13 10:27:58;;;;;;;;;12.25;10.75;;;;;31.19;32.15;100443.97;5001072;28;46316;-60
2023/10/13 10:30:33;;;;;;;;;13.25;11.75;;;;;31.25;32.20;100447.81;5001281;28;45385;-60
2023/10/13 10:32:59;;;;;;;;;12.00;12.00;;;;;31.28;32.17;100437.16;5001862;28;45219;-60
2023/10/13 10:35:34;;;;;;;;;12.75;11.50;;;;;31.44;32.27;100424.81;5001432;28;45860;-58
2023/10/13 10:38:15;;;;;;;;;10.25;10.25;;;;;31.65;32.40;100463.41;5001288;28;45388;-58
2023/10/13 10:40:56;;;;;;;;;13.00;11.00;;;;;31.56;32.45;100459.94;5001427;28;45342;-58
2023/10/13 10:43:45;;;;;;;;;11.75;11.75;;;;;31.82;31.68;100461.03;5001498;28;45512;-59
2023/10/13 10:46:12;;;;;;;;;13.25;12.25;;;;;31.81;32.11;100448.25;5001273;28;45492;-57
2023/10/13 10:48:42;;;;;;;;;7.75;6.50;;;;;31.84;31.65;100458.91;4997975;28;45433;-57
2023/10/13 10:51:57;;;;;;;;;11.00;11.00;;;;;32.03;31.61;100451.63;4983976;28;45548;-58
2023/10/13 10:54:33;;;;;;;;;12.50;12.50;;;;;32.16;31.63;100455.22;4982446;28;45465;-58
2023/10/13 10:56:55;;;;;;;;;13.25;10.00;;;;;32.40;31.45;100459.22;4997348;28;45470;-58
2023/10/13 10:59:24;;;;;;;;;12.75;12.75;;;;;32.44;31.14;100456.84;5000528;28;46145;-59
2023/10/13 11:01:53;;;;;;;;;11.25;9.75;;;;;32.64;30.23;100461.25;5001168;28;45381;-58
2023/10/13 11:06:54;;;;;;;;;16.25;15.00;;;;;33.61;29.56;100459.13;5000565;28;45372;-58
2023/10/13 11:12:15;;;;;;;;;12.25;12.25;;;;;34.28;28.51;100463.03;5001017;28;45448;-58
2023/10/13 11:14:49;;;;;;;;;13.00;11.50;;;;;34.78;28.10;100458.13;5000480;28;45518;-58
2023/10/13 11:17:42;;;;;;;;;11.50;8.50;;;;;34.94;27.33;100453.81;5001033;28;45268;-57
2023/10/13 11:20:25;;;;;;;;;7.25;6.25;;;;;34.74;27.65;100438.22;5001166;28;46690;-57
2023/10/13 11:22:52;;;;;;;;;11.25;11.25;;;;;36.06;26.20;100444.44;4999094;28;45547;-59
2023/10/13 11:25:34;;;;;;;;;9.75;5.75;;;;;35.82;26.64;100432.44;4991031;28;45595;-57
2023/10/13 11:28:49;;;;;;;;;13.00;11.25;;;;;36.88;24.74;100435.88;4999286;28;45335;-57
2023/10/13 11:31:19;;;;;;;;;11.25;11.25;;;;;37.34;24.72;100426.41;4996888;28;45919;-59
2023/10/13 11:33:48;;;;;;;;;7.50;7.00;;;;;37.64;24.29;100415.75;4999828;28;45247;-58
2023/10/13 11:36:23;;;;;;;;;11.75;10.75;;;;;37.76;23.97;100430.50;5000466;28;45303;-57
2023/10/13 11:41:22;;;;;;;;;11.25;11.25;;;;;37.38;24.56;100417.25;5000021;28;45440;-58
2023/10/13 11:43:52;;;;;;;;;12.00;11.00;;;;;37.06;25.21;100421.69;4999594;28;45507;-58
2023/10/13 11:51:45;;;;;;;;;8.25;8.25;;;;;35.46;26.76;100397.25;5002874;28;45293;-59
2023/10/13 11:54:13;;;;;;;;;9.00;9.00;;;;;34.95;27.42;100410.94;4999173;28;45472;-57
2023/10/13 11:56:38;;;;;;;;;8.75;8.75;;;;;34.33;28.00;100413.91;4999953;28;45445;-57
2023/10/13 11:59:05;;;;;;;;;7.25;7.25;;;;;34.68;27.88;100407.66;4999207;28;45403;-58
2023/10/13 12:04:33;;;;;;;;;12.25;9.75;;;;;34.57;28.13;100412.09;5006606;28;45418;-59
2023/10/13 12:07:19;;;;;;;;;6.00;4.75;;;;;33.95;29.01;100399.34;4989326;28;45655;-58
2023/10/13 12:10:03;;;;;;;;;9.00;7.25;;;;;33.74;29.07;100397.88;4999633;28;45485;-57
2023/10/13 12:12:40;;;;;;;;;9.50;9.50;;;;;33.94;29.27;100390.16;4999710;28;46516;-58
2023/10/13 12:15:09;;;;;;;;;12.25;11.00;;;;;33.81;29.56;100384.75;4999736;28;45529;-58
2023/10/13 12:17:35;;;;;;;;;11.00;10.25;;;;;34.01;29.35;100382.59;4998817;28;45350;-59
2023/10/13 12:20:04;;;;;;;;;10.50;10.50;;;;;33.83;29.42;100374.25;5000008;28;45364;-57
2023/10/13 12:22:38;;;;;;;;;13.00;11.75;;;;;33.61;29.49;100371.00;4999651;28;45473;-58
2023/10/13 12:25:18;;;;;;;;;12.00;12.00;;;;;33.68;30.08;100371.81;4999788;28;45329;-58
2023/10/13 12:27:48;;;;;;;;;10.75;9.50;;;;;34.12;29.06;100367.88;4999397;28;45456;-57
2023/10/13 12:30:14;;;;;;;;;8.25;7.25;;;;;34.10;28.96;100364.50;4998703;28;46405;-59
2023/10/13 12:32:53;;;;;;;;;9.25;9.25;;;;;34.16;29.07;100362.72;4998925;28;46144;-58
2023/10/13 12:36:06;;;;;;;;;7.75;7.75;;;;;34.34;28.92;100373.00;4998612;28;45508;-58
2023/10/13 12:38:29;;;;;;;;;9.50;7.50;;;;;35.05;28.20;100353.53;4991543;28;45339;-60
2023/10/13 12:49:38;;;;;;;;;9.75;8.50;;;;;36.59;26.23;100334.44;4998726;28;45802;-57
2023/10/13 12:52:00;;;;;;;;;12.25;10.50;;;;;36.42;26.43;100316.78;4998300;28;45314;-58
2023/10/13 12:54:35;;;;;;;;;9.00;9.00;;;;;36.48;26.62;100318.59;4998911;28;45868;-58
2023/10/13 12:57:00;;;;;;;;;11.75;10.25;;;;;36.20;26.71;100330.59;4980781;28;45428;-58
2023/10/13 12:59:28;;;;;;;;;9.50;6.50;;;;;35.65;27.04;100311.50;4981204;28;45416;-59
2023/10/13 13:01:54;;;;;;;;;13.00;9.00;;;;;35.77;27.28;100326.31;4999222;28;45506;-59
2023/10/13 13:04:31;;;;;;;;;0.25;0.00;;;;;36.02;26.88;100331.59;4999320;28;46068;-58
2023/10/13 13:06:57;;;;;;;;;10.50;8.75;;;;;35.59;27.48;100329.22;4999217;28;45448;-58
2023/10/13 13:09:28;;;;;;;;;6.25;6.25;;;;;36.07;26.78;100345.66;4999605;28;45386;-58
2023/10/13 13:11:57;;;;;;;;;8.75;8.00;;;;;35.78;27.23;100332.75;4999168;28;45399;-57
2023/10/13 13:14:28;;;;;;;;;8.00;6.50;;;;;35.70;27.07;100328.38;4981602;28;47036;-58
2023/10/13 13:17:04;;;;;;;;;7.00;5.50;;;;;35.78;27.22;100318.78;4998324;28;45179;-58
2023/10/13 13:19:33;;;;;;;;;9.00;5.75;;;;;35.62;27.37;100326.81;4998868;28;45345;-58
2023/10/13 13:21:59;;;;;;;;;11.75;11.75;;;;;35.46;27.50;100315.53;4998208;28;46273;-58
2023/10/13 13:24:24;;;;;;;;;13.75;11.00;;;;;35.09;27.97;100314.88;4998349;28;45380;-58
2023/10/13 13:26:54;;;;;;;;;5.75;5.75;;;;;35.02;27.99;100298.28;4998793;28;45399;-59
2023/10/13 13:29:20;;;;;;;;;10.00;8.00;;;;;34.67;28.75;100314.06;4998608;28;45324;-59
2023/10/13 13:31:46;;;;;;;;;10.00;9.25;;;;;34.77;28.30;100292.94;4998173;28;45252;-58
2023/10/13 13:34:14;;;;;;;;;12.25;11.25;;;;;34.28;28.81;100293.25;4998067;28;45675;-59
2023/10/13 13:36:44;;;;;;;;;11.00;11.00;;;;;33.85;29.79;100296.16;4998780;28;45408;-58
2023/10/13 13:39:17;;;;;;;;;9.75;9.25;;;;;34.09;29.40;100290.47;4998399;28;45489;-58
2023/10/13 13:41:43;;;;;;;;;8.50;8.50;;;;;34.08;29.08;100297.13;4998472;28;45279;-59
2023/10/13 13:44:15;;;;;;;;;10.50;9.25;;;;;34.13;29.49;100279.69;4998191;28;47021;-58
2023/10/13 13:46:43;;;;;;;;;9.75;8.00;;;;;34.05;29.41;100286.44;4998971;28;45447;-57
2023/10/13 13:49:17;;;;;;;;;10.00;10.00;;;;;33.92;29.60;100291.34;4998763;28;45422;-60
2023/10/13 13:51:51;;;;;;;;;12.50;10.25;;;;;33.83;29.58;100284.41;4997385;28;45473;-58
2023/10/13 13:54:17;;;;;;;;;10.25;10.25;;;;;33.63;29.52;100298.50;4998329;28;45297;-58
2023/10/13 13:56:42;;;;;;;;;10.00;10.00;;;;;33.42;30.13;100291.47;4998291;28;46071;-59
2023/10/13 13:59:09;;;;;;;;;15.50;11.25;;;;;32.90;30.86;100284.47;4998400;28;45445;-59
2023/10/13 14:01:37;;;;;;;;;12.75;11.00;;;;;32.86;30.93;100297.94;4998822;28;45577;-58
2023/10/13 14:04:06;;;;;;;;;11.00;9.50;;;;;33.05;30.86;100287.75;4998442;28;46338;-58
2023/10/13 14:06:32;;;;;;;;;11.00;9.00;;;;;33.32;30.85;100286.44;4998721;28;45635;-58
2023/10/13 14:09:16;;;;;;;;;10.75;9.75;;;;;33.25;30.69;100271.78;4998317;28;45357;-59
2023/10/13 14:16:51;;;;;;;;;13.75;12.25;;;;;33.11;31.01;100272.94;4998234;28;45329;-58
2023/10/13 14:19:26;;;;;;;;;11.75;11.00;;;;;33.31;30.92;100275.56;4998651;28;45526;-59
2023/10/13 14:21:55;;;;;;;;;10.75;9.50;;;;;33.13;30.88;100264.38;4998434;28;45349;-58
2023/10/13 14:24:27;;;;;;;;;14.00;11.75;;;;;32.91;31.22;100267.59;4996983;28;46153;-58
2023/10/13 14:26:58;;;;;;;;;11.50;8.50;;;;;32.75;31.35;100279.25;4997212;28;45413;-58
2023/10/13 14:29:26;;;;;;;;;8.25;8.25;;;;;32.59;31.49;100266.75;4997473;28;45319;-58
2023/10/13 14:31:52;;;;;;;;;8.75;6.50;;;;;32.96;30.97;100261.34;4980432;28;45918;-57
2023/10/13 14:34:17;;;;;;;;;11.25;9.50;;;;;33.10;31.13;100254.56;4998204;28;45390;-59
2023/10/13 14:36:48;;;;;;;;;10.50;10.00;;;;;33.06;30.93;100259.75;4998065;28;45356;-59
2023/10/13 14:39:14;;;;;;;;;12.25;12.00;;;;;32.85;31.59;100257.38;4997749;28;45382;-58
2023/10/13 14:41:39;;;;;;;;;16.50;12.00;;;;;32.87;31.45;100241.34;4999185;28;45476;-59
2023/10/13 14:44:05;;;;;;;;;11.75;11.75;;;;;32.30;32.68;100239.66;5000160;28;47010;-58
2023/10/13 14:46:31;;;;;;;;;13.00;12.25;;;;;32.67;31.68;100248.94;5001319;28;45347;-58
2023/10/13 14:48:57;;;;;;;;;14.00;14.00;;;;;32.65;31.67;100240.03;5001501;28;45346;-58
2023/10/13 14:51:25;;;;;;;;;16.25;14.25;;;;;32.64;31.89;100239.16;5000939;28;45560;-58
2023/10/13 14:53:55;;;;;;;;;16.25;16.25;;;;;32.50;32.07;100237.56;4999287;28;45378;-58
2023/10/13 14:56:25;;;;;;;;;16.75;15.50;;;;;32.64;31.81;100241.09;5001142;28;45425;-58
2023/10/13 14:58:51;;;;;;;;;15.50;13.00;;;;;32.42;32.37;100259.19;4999502;28;45597;-58
2023/10/13 15:01:18;;;;;;;;;15.00;15.00;;;;;32.49;32.43;100244.22;5001176;28;45321;-58
2023/10/13 15:03:51;;;;;;;;;16.50;12.75;;;;;32.48;32.45;100231.41;5000540;28;45358;-58
2023/10/13 15:06:20;;;;;;;;;16.75;15.25;;;;;32.42;32.70;100225.88;5000609;28;45544;-58
2023/10/13 15:08:47;;;;;;;;;13.00;12.00;;;;;32.62;32.09;100233.00;5000909;28;45424;-58
2023/10/13 15:11:18;;;;;;;;;18.50;14.25;;;;;32.83;31.47;100211.50;4982643;28;46135;-58
2023/10/13 15:13:44;;;;;;;;;15.50;14.75;;;;;32.52;32.03;100221.53;5000409;28;46125;-58
2023/10/13 15:16:14;;;;;;;;;16.50;13.50;;;;;32.26;32.84;100202.31;5000657;28;45545;-60
2023/10/13 15:18:40;;;;;;;;;17.75;14.25;;;;;32.36;32.49;100204.59;5000948;28;45486;-60
2023/10/13 15:21:08;;;;;;;;;9.75;9.75;;;;;32.66;32.19;100202.88;5000949;28;45384;-59
2023/10/13 15:23:42;;;;;;;;;16.75;14.50;;;;;32.81;31.78;100211.72;5000444;28;45378;-59
2023/10/13 15:26:13;;;;;;;;;13.50;13.00;;;;;32.62;32.50;100208.00;5000926;28;45455;-59
2023/10/13 15:28:48;;;;;;;;;17.75;12.25;;;;;32.52;32.42;100199.34;4999805;28;45468;-57
2023/10/13 15:31:22;;;;;;;;;15.50;15.50;;;;;32.48;32.81;100208.34;5000477;28;45582;-57
2023/10/13 15:33:54;;;;;;;;;12.25;11.75;;;;;32.70;32.67;100215.22;5000727;28;46909;-58
2023/10/13 15:36:25;;;;;;;;;14.00;12.50;;;;;32.47;32.49;100217.75;5000743;28;45305;-57
2023/10/13 15:38:51;;;;;;;;;13.25;11.00;;;;;32.55;32.43;100203.59;5000866;28;45429;-58
2023/10/13 15:41:26;;;;;;;;;15.00;13.50;;;;;32.54;32.92;100216.63;4999632;28;45554;-59
2023/10/13 15:43:54;;;;;;;;;16.50;12.00;;;;;32.44;32.89;100205.16;5000119;28;45392;-58
2023/10/13 15:46:20;;;;;;;;;13.00;12.25;;;;;32.47;32.68;100223.31;4998266;28;45377;-59
2023/10/13 15:48:47;;;;;;;;;13.25;13.25;;;;;31.98;33.84;100208.25;5005346;28;45485;-57
2023/10/13 15:51:12;;;;;;;;;8.75;7.75;;;;;32.13;33.87;100200.47;5008978;28;45501;-58
2023/10/13 15:53:38;;;;;;;;;12.50;11.50;;;;;32.47;33.43;100187.22;5009912;28;46141;-59
2023/10/13 15:56:06;;;;;;;;;11.75;11.75;;;;;32.71;32.92;100180.00;5007741;28;45408;-59
2023/10/13 15:58:35;;;;;;;;;14.25;11.50;;;;;32.56;33.22;100174.75;5000035;28;45396;-58
2023/10/13 16:01:01;;;;;;;;;14.25;12.75;;;;;32.74;32.63;100182.31;4999612;28;45416;-57
2023/10/13 16:03:27;;;;;;;;;12.25;12.25;;;;;32.64;32.97;100183.66;4981704;28;47179;-57
2023/10/13 16:05:52;;;;;;;;;11.50;11.50;;;;;32.59;33.07;100168.75;5000266;28;45354;-59
2023/10/13 16:08:18;;;;;;;;;13.50;11.25;;;;;32.48;33.53;100183.38;5000229;28;45341;-58
2023/10/13 16:10:44;;;;;;;;;14.25;10.25;;;;;32.42;33.24;100185.13;5000071;28;45936;-59
2023/10/13 16:13:15;;;;;;;;;14.75;14.75;;;;;32.15;33.58;100195.56;4998991;28;45511;-59
2023/10/13 16:15:42;;;;;;;;;13.75;12.00;;;;;31.90;33.98;100164.97;5000036;28;45439;-59
2023/10/13 16:18:08;;;;;;;;;13.50;11.75;;;;;32.27;33.06;100168.81;4999792;28;45301;-59
2023/10/13 16:20:35;;;;;;;;;14.25;13.00;;;;;32.55;33.20;100150.84;4999633;28;45481;-59
2023/10/13 16:23:01;;;;;;;;;8.00;8.00;;;;;32.36;32.97;100140.78;4999537;28;46905;-59
2023/10/13 16:25:26;;;;;;;;;14.75;13.50;;;;;31.90;33.75;100128.94;4998243;28;45149;-58
2023/10/13 16:27:52;;;;;;;;;18.50;14.50;;;;;32.19;33.23;100148.81;4999561;28;45254;-57
2023/10/13 16:30:19;;;;;;;;;20.75;19.25;;;;;32.13;33.82;100133.06;4999196;28;45465;-59
2023/10/13 16:32:45;;;;;;;;;15.50;15.50;;;;;32.07;33.89;100156.97;4998840;28;45396;-58
2023/10/13 16:35:18;;;;;;;;;22.75;18.75;;;;;32.23;33.87;100139.84;4999146;28;45354;-59
2023/10/13 16:37:47;;;;;;;;;26.75;25.75;;;;;32.37;33.38;100129.47;4999235;28;45404;-58
2023/10/13 16:40:19;;;;;;;;;21.50;17.75;;;;;32.19;33.73;100134.94;4998577;28;45529;-59
2023/10/13 16:42:46;;;;;;;;;17.75;15.75;;;;;32.07;33.49;100131.19;4998804;28;46224;-58
2023/10/13 16:45:14;;;;;;;;;21.25;19.25;;;;;32.10;33.53;100123.25;4998494;28;45445;-57
2023/10/13 16:47:43;;;;;;;;;17.50;15.00;;;;;32.24;33.77;100111.00;4999081;28;45443;-59
2023/10/13 16:50:14;;;;;;;;;20.75;17.50;;;;;31.90;34.10;100125.34;4996431;28;45368;-59
2023/10/13 16:52:40;;;;;;;;;19.50;18.00;;;;;31.88;33.93;100119.16;4998706;28;46347;-58
2023/10/13 16:55:07;;;;;;;;;19.75;17.50;;;;;31.35;34.79;100149.06;4998810;28;45449;-58
2023/10/13 16:57:33;;;;;;;;;25.25;20.75;;;;;31.75;34.05;100128.41;4998787;28;45521;-58
2023/10/13 16:59:58;;;;;;;;;19.50;19.50;;;;;32.02;33.50;100123.53;4998557;28;45443;-58
2023/10/13 17:02:24;;;;;;;;;21.75;21.50;;;;;32.11;33.67;100124.09;4999776;28;45305;-57
2023/10/13 17:04:49;;;;;;;;;18.00;17.00;;;;;31.98;33.53;100124.22;4981494;28;45338;-59
2023/10/13 17:07:14;;;;;;;;;19.50;16.25;;;;;32.08;33.26;100124.53;4999373;28;45484;-59
2023/10/13 17:09:40;;;;;;;;;16.50;16.50;;;;;32.15;33.67;100126.22;4999496;28;45282;-58
2023/10/13 17:12:06;;;;;;;;;20.50;17.50;;;;;31.98;33.54;100125.06;4998838;28;46212;-58
2023/10/13 17:14:31;;;;;;;;;19.75;18.50;;;;;32.09;33.17;100131.78;4998871;28;45636;-58
2023/10/13 17:16:59;;;;;;;;;18.00;15.75;;;;;31.98;33.93;100111.19;4999223;28;45473;-58
2023/10/13 17:19:24;;;;;;;;;15.00;11.50;;;;;32.01;33.96;100130.13;4999358;28;45407;-59
2023/10/13 17:21:50;;;;;;;;;23.75;19.75;;;;;32.24;33.48;100129.59;4999039;28;45290;-58
2023/10/13 17:24:16;;;;;;;;;21.75;19.50;;;;;32.03;34.05;100146.56;4999246;28;45412;-59
2023/10/13 17:26:42;;;;;;;;;18.50;17.00;;;;;31.93;34.07;100139.59;4999200;28;45583;-59
2023/10/13 17:29:09;;;;;;;;;18.00;15.25;;;;;31.87;34.04;100134.09;4998935;28;45418;-59
2023/10/13 17:31:35;;;;;;;;;26.25;20.25;;;;;31.94;34.37;100141.28;4998707;28;45496;-59
2023/10/13 17:34:02;;;;;;;;;16.25;15.25;;;;;31.90;34.70;100122.56;4999005;28;45329;-64
2023/10/13 17:36:29;;;;;;;;;22.50;19.75;;;;;31.75;35.21;100113.69;4998785;28;45407;-66
2023/10/13 17:38:55;;;;;;;;;22.50;17.50;;;;;32.08;34.31;100113.44;4998410;28;45389;-66
2023/10/13 17:41:23;;;;;;;;;23.75;21.25;;;;;31.91;34.55;100118.69;4998099;28;45512;-66
2023/10/13 17:43:49;;;;;;;;;21.75;20.75;;;;;31.92;34.41;100115.69;4998771;28;45505;-67
2023/10/13 17:46:14;;;;;;;;;23.50;21.00;;;;;31.79;34.41;100110.25;4998365;28;45369;-66
2023/10/13 17:48:40;;;;;;;;;24.75;23.75;;;;;31.83;34.73;100119.81;4997873;28;45401;-67
2023/10/13 17:51:10;;;;;;;;;16.75;16.50;;;;;31.61;34.81;100125.91;5002426;28;46108;-67
2023/10/13 17:53:37;;;;;;;;;26.25;25.25;;;;;31.45;34.98;100130.03;5005771;28;45329;-66
2023/10/13 17:56:12;;;;;;;;;30.25;26.50;;;;;31.64;35.03;100154.06;4982701;28;45394;-66
2023/10/13 17:58:41;;;;;;;;;26.25;24.75;;;;;31.51;34.83;100154.09;4997938;28;45645;-67
2023/10/13 18:01:19;;;;;;;;;34.25;31.75;;;;;31.32;35.30;100130.94;4997723;28;45995;-67
2023/10/13 18:03:50;;;;;;;;;46.00;37.75;;;;;30.72;36.60;100140.47;4998559;28;45200;-66
2023/10/13 18:06:17;;;;;;;;;51.00;41.25;;;;;31.13;36.24;100137.44;4998930;28;45481;-65
2023/10/13 18:08:43;;;;;;;;;50.50;40.25;;;;;30.52;37.29;100198.63;4993697;28;47293;-65
2023/10/13 18:11:12;;;;;;;;;48.50;41.75;;;;;31.11;36.62;100150.66;5006564;28;47023;-66
2023/10/13 18:13:42;;;;;;;;;46.50;39.75;;;;;31.06;36.22;100155.94;5005317;28;45606;-67
2023/10/13 18:16:25;;;;;;;;;52.50;43.25;;;;;31.12;36.36;100153.19;4999328;28;45346;-67
2023/10/13 18:18:51;;;;;;;;;49.25;39.75;;;;;31.15;36.46;100155.50;5001786;28;45419;-67
2023/10/13 18:21:17;;;;;;;;;40.50;35.75;;;;;31.00;37.06;100157.66;5000893;28;45366;-66
2023/10/13 18:23:46;;;;;;;;;48.00;39.25;;;;;31.02;36.81;100174.91;5001359;28;45534;-67
2023/10/13 18:26:12;;;;;;;;;48.75;40.50;;;;;30.78;36.81;100156.25;4997611;28;45373;-66
2023/10/13 18:28:38;;;;;;;;;54.50;44.25;;;;;30.83;36.80;100164.72;5000874;28;45519;-67
2023/10/13 18:31:04;;;;;;;;;49.25;41.50;;;;;30.75;36.96;100164.97;5001257;28;46221;-66
2023/10/13 18:33:34;;;;;;;;;46.75;37.00;;;;;30.87;37.23;100168.78;5001272;28;45330;-66
2023/10/13 18:36:14;;;;;;;;;54.00;45.50;;;;;31.18;36.77;100160.63;5001523;28;45287;-67